Time;durP1;ratioP1;P1;durP2;ratioP2;P2;SDS_P1;SDS_P2;PMS_P1;PMS_P2;Temp;Humidity;BMP_temperature;BMP_pressure;BME280_temperature;BME280_humidity;BME280_pressure;Samples;Min_cycle;Max_cycle;Signal;HPM_P1;HPM_P2
2022/01/31 00:00:59;;;;;;;20.08;5.50;;;;;;;;;;5129885;27;20061;-63
2022/01/31 00:03:26;;;;;;;18.30;5.10;;;;;;;;;;5147498;27;20090;-63
2022/01/31 00:05:52;;;;;;;21.80;5.50;;;;;;;;;;5151301;27;20085;-63
2022/01/31 00:08:23;;;;;;;17.95;6.15;;;;;;;;;;5151497;27;20142;-63
2022/01/31 00:10:50;;;;;;;15.93;5.43;;;;;;;;;;5151389;27;20047;-63
2022/01/31 00:13:34;;;;;;;20.23;4.72;;;;;;;;;;5150487;27;20096;-62
2022/01/31 00:16:01;;;;;;;19.08;5.18;;;;;;;;;;5137872;27;20055;-63
2022/01/31 00:18:28;;;;;;;19.77;5.57;;;;;;;;;;5130550;27;20059;-63
2022/01/31 00:20:55;;;;;;;19.90;5.60;;;;;;;;;;5130288;27;20059;-62
2022/01/31 00:23:21;;;;;;;24.30;5.20;;;;;;;;;;5132374;27;20058;-63
2022/01/31 00:25:47;;;;;;;21.08;5.03;;;;;;;;;;5130284;27;20062;-63
2022/01/31 00:28:14;;;;;;;16.17;4.75;;;;;;;;;;5131275;27;20050;-63
2022/01/31 00:30:40;;;;;;;24.45;5.68;;;;;;;;;;5130488;27;20140;-63
2022/01/31 00:33:07;;;;;;;24.40;5.35;;;;;;;;;;5130104;27;20057;-63
2022/01/31 00:35:33;;;;;;;30.52;5.07;;;;;;;;;;5130073;27;20075;-63
2022/01/31 00:37:59;;;;;;;28.20;5.65;;;;;;;;;;5129853;27;20060;-63
2022/01/31 00:40:26;;;;;;;19.38;5.10;;;;;;;;;;5129114;27;20052;-62
2022/01/31 00:42:52;;;;;;;19.25;5.43;;;;;;;;;;5141345;27;20058;-62
2022/01/31 00:45:30;;;;;;;23.35;5.45;;;;;;;;;;5148234;27;20505;-62
2022/01/31 00:48:05;;;;;;;20.23;6.40;;;;;;;;;;5150871;27;20142;-63
2022/01/31 00:50:38;;;;;;;22.35;6.22;;;;;;;;;;5150547;27;20120;-63
2022/01/31 00:53:04;;;;;;;18.00;5.45;;;;;;;;;;5149408;27;20061;-63
2022/01/31 00:55:31;;;;;;;23.38;6.05;;;;;;;;;;5150627;27;20058;-63
2022/01/31 00:57:57;;;;;;;18.52;5.40;;;;;;;;;;5150301;27;20130;-64
2022/01/31 01:00:23;;;;;;;19.92;5.75;;;;;;;;;;5150218;27;20105;-64
2022/01/31 01:02:50;;;;;;;22.85;5.60;;;;;;;;;;5140609;27;20583;-64
2022/01/31 01:05:16;;;;;;;15.80;5.68;;;;;;;;;;5130018;27;20055;-64
2022/01/31 01:07:46;;;;;;;21.23;6.45;;;;;;;;;;5144528;27;20055;-64
2022/01/31 01:10:15;;;;;;;19.58;5.25;;;;;;;;;;5149494;27;20467;-64
2022/01/31 01:12:42;;;;;;;15.18;5.28;;;;;;;;;;5150931;27;20941;-64
2022/01/31 01:15:09;;;;;;;16.67;5.15;;;;;;;;;;5144052;27;20055;-66
2022/01/31 01:17:35;;;;;;;17.13;5.63;;;;;;;;;;5150098;27;20055;-64
2022/01/31 01:20:03;;;;;;;14.32;5.43;;;;;;;;;;5147473;27;20999;-65
2022/01/31 01:22:30;;;;;;;16.95;5.50;;;;;;;;;;5131826;27;20049;-65
2022/01/31 01:24:57;;;;;;;19.55;6.05;;;;;;;;;;5150575;27;20536;-64
2022/01/31 01:27:27;;;;;;;29.58;7.35;;;;;;;;;;5150572;27;20047;-64
2022/01/31 01:29:53;;;;;;;13.63;5.50;;;;;;;;;;5150445;27;20059;-64
2022/01/31 01:32:20;;;;;;;16.98;5.55;;;;;;;;;;5147970;27;20505;-65
2022/01/31 01:34:46;;;;;;;16.50;5.35;;;;;;;;;;5142905;27;20579;-64
2022/01/31 01:37:13;;;;;;;15.48;5.97;;;;;;;;;;5129553;27;20170;-64
2022/01/31 01:39:41;;;;;;;17.58;5.90;;;;;;;;;;5142020;27;20086;-64
2022/01/31 01:42:07;;;;;;;24.97;7.10;;;;;;;;;;5148397;27;20497;-64
2022/01/31 01:44:42;;;;;;;19.52;6.50;;;;;;;;;;5148448;27;20079;-65
2022/01/31 01:47:09;;;;;;;18.00;6.32;;;;;;;;;;5148365;27;20138;-64
2022/01/31 01:49:35;;;;;;;19.08;6.07;;;;;;;;;;5149409;27;20495;-63
2022/01/31 01:52:02;;;;;;;17.05;6.63;;;;;;;;;;5153382;27;20055;-64
2022/01/31 01:54:28;;;;;;;19.48;6.70;;;;;;;;;;5153086;27;20484;-63
2022/01/31 01:56:55;;;;;;;15.52;5.93;;;;;;;;;;5152087;27;20057;-61
2022/01/31 01:59:22;;;;;;;17.25;6.50;;;;;;;;;;5150042;27;20054;-62
2022/01/31 02:01:48;;;;;;;15.95;5.93;;;;;;;;;;5153109;27;20047;-61
2022/01/31 02:04:14;;;;;;;14.80;5.97;;;;;;;;;;5136648;27;20070;-62
2022/01/31 02:06:42;;;;;;;16.27;6.40;;;;;;;;;;5132349;27;20047;-62
2022/01/31 02:09:08;;;;;;;16.20;5.10;;;;;;;;;;5135812;27;20142;-62
2022/01/31 02:11:35;;;;;;;16.42;5.78;;;;;;;;;;5151782;27;20142;-62
2022/01/31 02:14:02;;;;;;;18.55;5.93;;;;;;;;;;5143441;27;20159;-62
2022/01/31 02:16:28;;;;;;;16.83;6.30;;;;;;;;;;5146325;27;20058;-63
2022/01/31 02:18:55;;;;;;;15.60;6.88;;;;;;;;;;5153678;27;20156;-63
2022/01/31 02:21:22;;;;;;;17.92;6.45;;;;;;;;;;5144022;27;20051;-63
2022/01/31 02:23:48;;;;;;;17.15;6.43;;;;;;;;;;5132871;27;20150;-62
2022/01/31 02:26:15;;;;;;;19.40;5.43;;;;;;;;;;5131402;27;20105;-63
2022/01/31 02:28:41;;;;;;;16.05;5.70;;;;;;;;;;5145404;27;20051;-63
2022/01/31 02:31:08;;;;;;;16.45;5.43;;;;;;;;;;5131806;27;20062;-63
2022/01/31 02:33:34;;;;;;;13.65;4.65;;;;;;;;;;5134952;27;20052;-62
2022/01/31 02:36:01;;;;;;;25.00;5.63;;;;;;;;;;5131703;27;20062;-63
2022/01/31 02:38:28;;;;;;;28.92;5.43;;;;;;;;;;5132856;27;20058;-63
2022/01/31 02:40:55;;;;;;;25.23;4.75;;;;;;;;;;5152661;27;20079;-63
2022/01/31 02:43:31;;;;;;;21.60;4.47;;;;;;;;;;5152731;27;20055;-63
2022/01/31 02:45:58;;;;;;;22.80;4.15;;;;;;;;;;5151306;27;20054;-63
2022/01/31 02:48:27;;;;;;;31.45;4.40;;;;;;;;;;5151564;27;20054;-63
2022/01/31 02:50:53;;;;;;;28.42;4.70;;;;;;;;;;5151394;27;20055;-63
2022/01/31 02:53:28;;;;;;;19.35;3.40;;;;;;;;;;5151695;27;20058;-63
2022/01/31 02:55:56;;;;;;;22.85;3.80;;;;;;;;;;5152769;27;20055;-63
2022/01/31 02:58:25;;;;;;;27.95;4.03;;;;;;;;;;5152440;27;20058;-63
2022/01/31 03:00:52;;;;;;;24.88;3.30;;;;;;;;;;5140684;27;20054;-63
2022/01/31 03:03:18;;;;;;;19.42;2.70;;;;;;;;;;5132523;27;20060;-63
2022/01/31 03:05:45;;;;;;;23.25;3.33;;;;;;;;;;5133144;27;20059;-64
2022/01/31 03:08:13;;;;;;;15.93;2.78;;;;;;;;;;5131163;27;20048;-64
2022/01/31 03:10:39;;;;;;;18.20;3.65;;;;;;;;;;5137940;27;20540;-64
2022/01/31 03:13:06;;;;;;;20.45;3.25;;;;;;;;;;5151805;27;20499;-64
2022/01/31 03:15:33;;;;;;;18.35;2.60;;;;;;;;;;5132334;27;20051;-64
2022/01/31 03:17:59;;;;;;;15.32;2.60;;;;;;;;;;5131373;27;20445;-64
2022/01/31 03:20:26;;;;;;;19.08;3.30;;;;;;;;;;5131190;27;21153;-64
2022/01/31 03:22:52;;;;;;;21.10;2.40;;;;;;;;;;5131800;27;20051;-64
2022/01/31 03:25:19;;;;;;;18.45;3.03;;;;;;;;;;5130824;27;20050;-64
2022/01/31 03:27:46;;;;;;;23.85;3.30;;;;;;;;;;5131493;27;20051;-64
2022/01/31 03:30:14;;;;;;;15.10;2.33;;;;;;;;;;5131338;27;20063;-64
2022/01/31 03:32:41;;;;;;;19.95;3.22;;;;;;;;;;5131401;27;20048;-64
2022/01/31 03:35:08;;;;;;;15.10;1.83;;;;;;;;;;5130639;27;20052;-64
2022/01/31 03:37:35;;;;;;;16.52;2.45;;;;;;;;;;5145262;27;20055;-63
2022/01/31 03:40:03;;;;;;;17.38;2.60;;;;;;;;;;5150258;27;20050;-63
2022/01/31 03:42:30;;;;;;;11.87;2.40;;;;;;;;;;5149130;27;20057;-63
2022/01/31 03:44:56;;;;;;;15.05;2.22;;;;;;;;;;5145885;27;20553;-64
2022/01/31 03:47:23;;;;;;;17.02;2.65;;;;;;;;;;5137034;27;20051;-63
2022/01/31 03:49:50;;;;;;;15.73;2.30;;;;;;;;;;5148208;27;20059;-64
2022/01/31 03:52:16;;;;;;;20.65;3.35;;;;;;;;;;5150258;27;20052;-64
2022/01/31 03:54:43;;;;;;;18.27;2.42;;;;;;;;;;5151084;27;20055;-64
2022/01/31 03:57:09;;;;;;;16.05;3.35;;;;;;;;;;5137191;27;20063;-64
2022/01/31 03:59:36;;;;;;;20.65;4.05;;;;;;;;;;5138726;27;20406;-64
2022/01/31 04:02:05;;;;;;;15.52;2.92;;;;;;;;;;5150556;27;20058;-64
2022/01/31 04:04:32;;;;;;;22.17;2.53;;;;;;;;;;5150600;27;20051;-64
2022/01/31 04:06:58;;;;;;;21.95;2.95;;;;;;;;;;5139510;27;20093;-64
2022/01/31 04:09:25;;;;;;;21.75;3.22;;;;;;;;;;5129049;27;20059;-64
2022/01/31 04:11:51;;;;;;;18.40;2.75;;;;;;;;;;5129467;27;20052;-64
2022/01/31 04:14:17;;;;;;;19.58;3.13;;;;;;;;;;5143688;27;20497;-64
2022/01/31 04:16:44;;;;;;;22.15;2.72;;;;;;;;;;5138987;27;20051;-64
2022/01/31 04:19:10;;;;;;;19.20;2.75;;;;;;;;;;5149840;27;20074;-64
2022/01/31 04:21:36;;;;;;;17.83;2.60;;;;;;;;;;5150567;27;20051;-64
2022/01/31 04:24:03;;;;;;;16.50;2.90;;;;;;;;;;5150293;27;20051;-63
2022/01/31 04:26:33;;;;;;;18.13;3.28;;;;;;;;;;5149807;27;20865;-64
2022/01/31 04:29:09;;;;;;;19.33;3.00;;;;;;;;;;5129451;27;20527;-64
2022/01/31 04:31:41;;;;;;;21.52;2.58;;;;;;;;;;5129413;27;20044;-64
2022/01/31 04:34:09;;;;;;;22.50;3.03;;;;;;;;;;5129731;27;20048;-63
2022/01/31 04:36:35;;;;;;;19.67;3.47;;;;;;;;;;5128542;27;20055;-64
2022/01/31 04:39:02;;;;;;;15.68;2.75;;;;;;;;;;5149164;27;20050;-64
2022/01/31 04:41:29;;;;;;;24.60;3.13;;;;;;;;;;5133023;27;20632;-64
2022/01/31 04:44:00;;;;;;;15.00;2.42;;;;;;;;;;5129230;27;20055;-64
2022/01/31 04:46:26;;;;;;;24.52;3.42;;;;;;;;;;5129341;27;20047;-64
2022/01/31 04:48:53;;;;;;;17.67;2.88;;;;;;;;;;5129345;27;20050;-63
2022/01/31 04:51:19;;;;;;;23.27;3.75;;;;;;;;;;5128387;27;20048;-64
2022/01/31 04:53:45;;;;;;;21.40;3.22;;;;;;;;;;5128928;27;20048;-64
2022/01/31 04:56:16;;;;;;;24.33;4.03;;;;;;;;;;5128928;27;20516;-63
2022/01/31 04:58:43;;;;;;;21.40;3.40;;;;;;;;;;5128237;27;20516;-64
2022/01/31 05:01:09;;;;;;;29.98;3.58;;;;;;;;;;5128519;27;20043;-64
2022/01/31 05:03:36;;;;;;;16.05;2.75;;;;;;;;;;5128297;27;20052;-64
2022/01/31 05:06:02;;;;;;;22.42;3.65;;;;;;;;;;5146604;27;20062;-64
2022/01/31 05:08:29;;;;;;;12.57;2.97;;;;;;;;;;5144704;27;20057;-64
2022/01/31 05:10:56;;;;;;;9.45;1.38;;;;;;;;;;5136113;27;20062;-64
2022/01/31 05:13:23;;;;;;;18.48;2.40;;;;;;;;;;5149412;27;20138;-64
2022/01/31 05:15:53;;;;;;;15.13;2.35;;;;;;;;;;5149018;27;20175;-64
2022/01/31 05:18:20;;;;;;;19.10;2.72;;;;;;;;;;5149084;27;20047;-63
2022/01/31 05:20:47;;;;;;;16.05;2.53;;;;;;;;;;5136678;27;20048;-64
2022/01/31 05:23:13;;;;;;;17.15;2.28;;;;;;;;;;5127411;27;20140;-64
2022/01/31 05:25:39;;;;;;;15.70;2.30;;;;;;;;;;5143391;27;20051;-64
2022/01/31 05:28:06;;;;;;;13.32;2.15;;;;;;;;;;5149280;27;20070;-64
2022/01/31 05:30:32;;;;;;;18.23;2.53;;;;;;;;;;5148814;27;20584;-64
2022/01/31 05:32:58;;;;;;;8.57;1.65;;;;;;;;;;5149269;27;20055;-64
2022/01/31 05:35:25;;;;;;;19.45;2.20;;;;;;;;;;5148545;27;20051;-64
2022/01/31 05:37:51;;;;;;;12.10;2.05;;;;;;;;;;5141489;27;20039;-64
2022/01/31 05:40:17;;;;;;;19.52;2.08;;;;;;;;;;5148919;27;20082;-64
2022/01/31 05:42:43;;;;;;;20.35;2.53;;;;;;;;;;5145394;27;20142;-64
2022/01/31 05:45:10;;;;;;;16.27;2.85;;;;;;;;;;5148295;27;20108;-64
2022/01/31 05:47:36;;;;;;;26.80;2.55;;;;;;;;;;5148211;27;20047;-64
2022/01/31 05:50:03;;;;;;;23.10;2.38;;;;;;;;;;5145585;27;20062;-65
2022/01/31 05:52:30;;;;;;;16.27;2.08;;;;;;;;;;5127256;27;20170;-65
2022/01/31 05:54:57;;;;;;;19.77;2.60;;;;;;;;;;5128763;27;20056;-64
2022/01/31 05:57:23;;;;;;;25.98;3.75;;;;;;;;;;5128268;27;20520;-64
2022/01/31 05:59:50;;;;;;;24.08;2.92;;;;;;;;;;5127293;27;20812;-64
2022/01/31 06:02:17;;;;;;;26.13;2.63;;;;;;;;;;5128119;27;20568;-64
2022/01/31 06:04:44;;;;;;;24.25;2.83;;;;;;;;;;5131965;27;21482;-65
2022/01/31 06:07:10;;;;;;;19.17;2.78;;;;;;;;;;5146868;27;20051;-65
2022/01/31 06:09:38;;;;;;;25.00;3.65;;;;;;;;;;5149239;27;20066;-64
2022/01/31 06:12:05;;;;;;;28.10;3.25;;;;;;;;;;5148619;27;20055;-65
2022/01/31 06:14:31;;;;;;;18.35;3.00;;;;;;;;;;5130482;27;20047;-64
2022/01/31 06:16:58;;;;;;;16.27;3.00;;;;;;;;;;5128527;27;20680;-65
2022/01/31 06:19:24;;;;;;;23.02;3.50;;;;;;;;;;5127530;27;20051;-65
2022/01/31 06:21:50;;;;;;;19.80;2.80;;;;;;;;;;5127535;27;20059;-64
2022/01/31 06:24:17;;;;;;;30.50;3.30;;;;;;;;;;5139072;27;20493;-64
2022/01/31 06:26:43;;;;;;;18.10;3.15;;;;;;;;;;5148773;27;20048;-65
2022/01/31 06:29:09;;;;;;;16.95;2.80;;;;;;;;;;5147684;27;20051;-64
2022/01/31 06:31:36;;;;;;;16.48;3.05;;;;;;;;;;5148617;27;20524;-65
2022/01/31 06:34:02;;;;;;;25.45;2.92;;;;;;;;;;5144946;27;20051;-64
2022/01/31 06:36:29;;;;;;;23.73;2.78;;;;;;;;;;5150695;27;20061;-65
2022/01/31 06:38:55;;;;;;;31.63;2.90;;;;;;;;;;5152243;27;20051;-65
2022/01/31 06:41:23;;;;;;;26.00;3.60;;;;;;;;;;5152084;27;20150;-65
2022/01/31 06:43:50;;;;;;;16.27;2.92;;;;;;;;;;5140616;27;20078;-64
2022/01/31 06:46:17;;;;;;;26.10;2.65;;;;;;;;;;5138464;27;20059;-65
2022/01/31 06:48:43;;;;;;;24.00;2.50;;;;;;;;;;5152021;27;20503;-64
2022/01/31 06:51:09;;;;;;;13.95;2.55;;;;;;;;;;5150920;27;20051;-65
2022/01/31 06:53:36;;;;;;;17.77;2.50;;;;;;;;;;5148247;27;20047;-64
2022/01/31 06:56:03;;;;;;;21.85;2.65;;;;;;;;;;5136910;27;20481;-65
2022/01/31 06:58:29;;;;;;;21.20;2.97;;;;;;;;;;5130565;27;20052;-65
2022/01/31 07:00:57;;;;;;;20.95;3.70;;;;;;;;;;5131518;27;20057;-65
2022/01/31 07:03:24;;;;;;;;;;;;;;;;;;5132764;27;20419;-65
2022/01/31 07:05:50;;;;;;;24.55;2.88;;;;;;;;;;5129870;27;44841;-65
2022/01/31 07:08:17;;;;;;;14.55;2.47;;;;;;;;;;5130711;27;20536;-65
2022/01/31 07:10:51;;;;;;;25.88;2.53;;;;;;;;;;5131007;27;20043;-65
2022/01/31 07:13:34;;;;;;;15.68;2.97;;;;;;;;;;5133348;27;20138;-65
2022/01/31 07:16:01;;;;;;;22.95;2.72;;;;;;;;;;5130156;27;20152;-65
2022/01/31 07:18:28;;;;;;;17.08;2.88;;;;;;;;;;5130246;27;20058;-64
2022/01/31 07:20:56;;;;;;;23.42;2.85;;;;;;;;;;5129934;27;20139;-65
2022/01/31 07:23:39;;;;;;;17.52;3.35;;;;;;;;;;5131037;27;20083;-65
2022/01/31 07:26:05;;;;;;;28.92;3.78;;;;;;;;;;5138063;27;20049;-65
2022/01/31 07:28:31;;;;;;;24.20;3.20;;;;;;;;;;5130245;27;20059;-65
2022/01/31 07:30:58;;;;;;;17.40;3.28;;;;;;;;;;5137115;27;20527;-64
2022/01/31 07:33:24;;;;;;;21.85;2.85;;;;;;;;;;5150800;27;20051;-64
2022/01/31 07:35:51;;;;;;;28.65;4.00;;;;;;;;;;5136428;27;20074;-65
2022/01/31 07:38:18;;;;;;;26.67;3.40;;;;;;;;;;5145583;27;20043;-65
2022/01/31 07:40:45;;;;;;;23.15;2.97;;;;;;;;;;5150126;27;20058;-65
2022/01/31 07:43:12;;;;;;;23.30;3.17;;;;;;;;;;5131984;27;20055;-65
2022/01/31 07:45:38;;;;;;;26.30;3.05;;;;;;;;;;5130280;27;20138;-65
2022/01/31 07:48:05;;;;;;;23.17;3.38;;;;;;;;;;5129926;27;20055;-65
2022/01/31 07:50:32;;;;;;;23.73;2.88;;;;;;;;;;5129306;27;20944;-65
2022/01/31 07:52:59;;;;;;;28.15;3.97;;;;;;;;;;5150312;27;20051;-65
2022/01/31 07:55:25;;;;;;;21.42;3.15;;;;;;;;;;5144421;27;20060;-65
2022/01/31 07:57:51;;;;;;;18.88;3.22;;;;;;;;;;5129575;27;20055;-65
2022/01/31 08:00:19;;;;;;;29.33;3.40;;;;;;;;;;5129540;27;20101;-65
2022/01/31 08:02:45;;;;;;;20.45;3.10;;;;;;;;;;5130174;27;20503;-65
2022/01/31 08:05:11;;;;;;;28.40;3.63;;;;;;;;;;5130082;27;20054;-64
2022/01/31 08:07:38;;;;;;;25.73;3.13;;;;;;;;;;5136287;27;20529;-65
2022/01/31 08:10:05;;;;;;;22.58;3.10;;;;;;;;;;5150605;27;20519;-66
2022/01/31 08:12:34;;;;;;;26.83;3.38;;;;;;;;;;5148492;27;20150;-65
2022/01/31 08:15:04;;;;;;;21.70;3.42;;;;;;;;;;5142911;27;20059;-65
2022/01/31 08:17:31;;;;;;;33.92;3.85;;;;;;;;;;5147462;27;20051;-65
2022/01/31 08:19:57;;;;;;;17.70;3.47;;;;;;;;;;5136848;27;20053;-66
2022/01/31 08:22:23;;;;;;;23.20;3.25;;;;;;;;;;5142276;27;20043;-66
2022/01/31 08:24:50;;;;;;;20.27;2.85;;;;;;;;;;5150019;27;20058;-66
2022/01/31 08:27:16;;;;;;;29.65;4.22;;;;;;;;;;5150414;27;20871;-66
2022/01/31 08:29:42;;;;;;;23.10;3.25;;;;;;;;;;5142710;27;20047;-65
2022/01/31 08:32:17;;;;;;;24.80;3.83;;;;;;;;;;5138121;27;20061;-65
2022/01/31 08:37:34;;;;;;;24.08;3.20;;;;;;;;;;5131256;27;20056;-65
2022/01/31 08:40:01;;;;;;;26.73;4.20;;;;;;;;;;5129227;27;20051;-65
2022/01/31 08:42:28;;;;;;;34.78;4.60;;;;;;;;;;5129589;27;20048;-65
2022/01/31 08:44:55;;;;;;;33.40;4.45;;;;;;;;;;5139227;27;20049;-66
2022/01/31 08:47:21;;;;;;;29.77;4.43;;;;;;;;;;5147875;27;20047;-65
2022/01/31 08:49:49;;;;;;;35.22;4.40;;;;;;;;;;5129989;27;20042;-66
2022/01/31 08:52:15;;;;;;;30.50;3.75;;;;;;;;;;5132320;27;20058;-65
2022/01/31 08:54:41;;;;;;;29.58;4.63;;;;;;;;;;5141252;27;20047;-65
2022/01/31 08:57:08;;;;;;;24.02;4.93;;;;;;;;;;5127874;27;20052;-65
2022/01/31 08:59:40;;;;;;;25.10;4.00;;;;;;;;;;5147940;27;20051;-65
2022/01/31 09:02:12;;;;;;;40.95;5.05;;;;;;;;;;5143362;27;20051;-65
2022/01/31 09:04:48;;;;;;;35.53;4.85;;;;;;;;;;5140609;27;20617;-65
2022/01/31 09:07:16;;;;;;;43.20;5.50;;;;;;;;;;5129515;27;20545;-66
2022/01/31 09:09:43;;;;;;;33.23;4.27;;;;;;;;;;5129781;27;20095;-66
2022/01/31 09:12:10;;;;;;;34.20;4.30;;;;;;;;;;5130955;27;20062;-66
2022/01/31 09:14:37;;;;;;;34.77;5.03;;;;;;;;;;5133862;27;20075;-63
2022/01/31 09:17:03;;;;;;;31.00;4.35;;;;;;;;;;5137550;27;20047;-63
2022/01/31 09:19:30;;;;;;;27.42;4.18;;;;;;;;;;5143294;27;20051;-67
2022/01/31 09:21:56;;;;;;;28.50;4.40;;;;;;;;;;5128955;27;20146;-65
2022/01/31 09:24:22;;;;;;;18.40;3.35;;;;;;;;;;5129543;27;20058;-66
2022/01/31 09:26:49;;;;;;;23.98;3.72;;;;;;;;;;5130003;27;20062;-66
2022/01/31 09:29:17;;;;;;;40.25;4.78;;;;;;;;;;5135705;27;20086;-65
2022/01/31 09:31:43;;;;;;;25.77;3.88;;;;;;;;;;5131052;27;20149;-66
2022/01/31 09:34:10;;;;;;;28.02;4.65;;;;;;;;;;5131994;27;20056;-65
2022/01/31 09:36:36;;;;;;;25.90;4.25;;;;;;;;;;5133722;27;20051;-66
2022/01/31 09:39:03;;;;;;;35.45;5.85;;;;;;;;;;5138206;27;20051;-67
2022/01/31 09:41:31;;;;;;;43.85;5.60;;;;;;;;;;5128185;27;20430;-66
2022/01/31 09:47:03;;;;;;;44.40;6.22;;;;;;;;;;5131590;27;20085;-66
2022/01/31 09:49:29;;;;;;;42.03;6.20;;;;;;;;;;5129904;27;20143;-65
2022/01/31 09:51:55;;;;;;;55.20;6.43;;;;;;;;;;5133400;27;20055;-66
2022/01/31 09:54:24;;;;;;;44.15;7.15;;;;;;;;;;5139935;27;20048;-65
2022/01/31 09:56:53;;;;;;;27.67;5.20;;;;;;;;;;5133212;27;20130;-65
2022/01/31 09:59:19;;;;;;;41.00;5.60;;;;;;;;;;5142561;27;20051;-65
2022/01/31 10:01:54;;;;;;;39.45;6.13;;;;;;;;;;5139855;27;20591;-65
2022/01/31 10:04:22;;;;;;;34.42;5.97;;;;;;;;;;5137136;27;20055;-65
2022/01/31 10:06:50;;;;;;;41.30;5.13;;;;;;;;;;5136614;27;20544;-65
2022/01/31 10:09:18;;;;;;;42.28;5.65;;;;;;;;;;5138244;27;20058;-65
2022/01/31 10:11:50;;;;;;;40.17;5.13;;;;;;;;;;5134653;27;20051;-65
2022/01/31 10:17:02;;;;;;;43.50;6.75;;;;;;;;;;5134058;27;20136;-65
2022/01/31 10:19:47;;;;;;;58.17;6.45;;;;;;;;;;5136347;27;20055;-64
2022/01/31 10:22:15;;;;;;;40.75;6.57;;;;;;;;;;5132177;27;20057;-65
2022/01/31 10:24:43;;;;;;;38.38;4.55;;;;;;;;;;5117405;27;20520;-65
2022/01/31 10:27:18;;;;;;;36.07;5.70;;;;;;;;;;5138467;27;21147;-64
2022/01/31 10:29:46;;;;;;;26.30;4.40;;;;;;;;;;5142250;27;20527;-65
2022/01/31 10:32:16;;;;;;;34.25;4.75;;;;;;;;;;5148442;27;20134;-63
2022/01/31 10:34:52;;;;;;;42.30;6.18;;;;;;;;;;5132760;27;20047;-65
2022/01/31 10:37:20;;;;;;;36.30;6.05;;;;;;;;;;5130239;27;20505;-65
2022/01/31 10:54:16;;;;;;;29.35;5.55;;;;;;;;;;5131794;27;20051;-65
2022/01/31 10:56:44;;;;;;;32.00;4.85;;;;;;;;;;5130273;27;20143;-65
2022/01/31 10:59:14;;;;;;;32.70;3.83;;;;;;;;;;5151882;27;20513;-65
2022/01/31 11:01:42;;;;;;;40.28;6.25;;;;;;;;;;5142630;27;20055;-66
2022/01/31 11:04:33;;;;;;;27.17;4.13;;;;;;;;;;5153048;27;20079;-65
2022/01/31 11:07:01;;;;;;;34.58;6.38;;;;;;;;;;5152093;27;20047;-65
2022/01/31 11:09:29;;;;;;;36.33;4.63;;;;;;;;;;5152885;27;20564;-65
2022/01/31 11:11:55;;;;;;;35.72;4.72;;;;;;;;;;5152940;27;20273;-65
2022/01/31 11:14:22;;;;;;;35.50;5.32;;;;;;;;;;5152913;27;20061;-65
2022/01/31 11:16:51;;;;;;;44.83;4.57;;;;;;;;;;5152109;27;20079;-65
2022/01/31 11:19:23;;;;;;;46.13;5.72;;;;;;;;;;5150799;27;20059;-66
2022/01/31 11:21:52;;;;;;;30.65;5.05;;;;;;;;;;5151361;27;20055;-66
2022/01/31 11:24:21;;;;;;;46.58;6.68;;;;;;;;;;5147277;27;20638;-66
2022/01/31 11:26:56;;;;;;;45.33;6.38;;;;;;;;;;5132113;27;20062;-66
2022/01/31 11:29:22;;;;;;;42.50;5.25;;;;;;;;;;5130917;27;20063;-66
2022/01/31 11:31:48;;;;;;;44.92;6.15;;;;;;;;;;5130882;27;20056;-66
2022/01/31 11:34:15;;;;;;;35.17;4.80;;;;;;;;;;5130982;27;20051;-66
2022/01/31 11:36:42;;;;;;;31.02;4.80;;;;;;;;;;5145643;27;20075;-66
2022/01/31 11:39:11;;;;;;;41.92;5.38;;;;;;;;;;5152131;27;20055;-66
2022/01/31 11:41:41;;;;;;;30.08;4.63;;;;;;;;;;5152135;27;20063;-66
2022/01/31 11:44:15;;;;;;;29.17;4.90;;;;;;;;;;5151904;27;20518;-66
2022/01/31 11:46:41;;;;;;;49.92;5.43;;;;;;;;;;5151842;27;20057;-66
2022/01/31 11:49:08;;;;;;;43.30;5.60;;;;;;;;;;5152494;27;20062;-66
2022/01/31 11:51:47;;;;;;;37.70;4.70;;;;;;;;;;5151597;27;20406;-66
2022/01/31 11:54:21;;;;;;;43.10;5.43;;;;;;;;;;5149756;27;20052;-66
2022/01/31 11:56:50;;;;;;;47.38;5.72;;;;;;;;;;5148460;27;20051;-66
2022/01/31 11:59:19;;;;;;;54.92;7.22;;;;;;;;;;5112804;27;20058;-66
2022/01/31 12:01:45;;;;;;;;;;;;;;;;;;5137197;27;20055;-64
2022/01/31 12:04:13;;;;;;;40.45;5.93;;;;;;;;;;5139251;27;45811;-65
2022/01/31 12:06:40;;;;;;;44.17;5.57;;;;;;;;;;5145551;27;20051;-64
2022/01/31 12:09:10;;;;;;;39.63;5.65;;;;;;;;;;5132467;27;20047;-65
2022/01/31 12:11:59;;;;;;;37.40;5.13;;;;;;;;;;5132898;27;20094;-65
2022/01/31 12:14:28;;;;;;;;;;;;;;;;;;5140967;27;20062;-65
2022/01/31 12:17:20;;;;;;;41.65;5.80;;;;;;;;;;5135681;27;44069;-65
2022/01/31 12:20:00;;;;;;;58.17;7.70;;;;;;;;;;5137022;27;20055;-65
2022/01/31 12:22:38;;;;;;;43.30;6.20;;;;;;;;;;5145111;27;20978;-65
2022/01/31 12:25:20;;;;;;;37.20;4.82;;;;;;;;;;5132838;27;20051;-64
2022/01/31 12:27:46;;;;;;;37.83;4.82;;;;;;;;;;5139194;27;20047;-65
2022/01/31 12:30:28;;;;;;;36.25;6.25;;;;;;;;;;5139898;27;20078;-65
2022/01/31 12:32:54;;;;;;;51.40;6.43;;;;;;;;;;5140456;27;20055;-66
2022/01/31 12:35:29;;;;;;;38.83;5.90;;;;;;;;;;5140562;27;20051;-64
2022/01/31 12:37:56;;;;;;;38.70;5.43;;;;;;;;;;5139768;27;20062;-65
2022/01/31 12:40:30;;;;;;;39.78;5.78;;;;;;;;;;5137476;27;20052;-65
2022/01/31 12:45:27;;;;;;;35.92;4.88;;;;;;;;;;5131793;27;20043;-67
2022/01/31 12:48:06;;;;;;;48.60;9.15;;;;;;;;;;5130292;27;20056;-67
2022/01/31 12:50:34;;;;;;;33.92;5.20;;;;;;;;;;5138671;27;20128;-67
2022/01/31 12:53:05;;;;;;;39.70;5.50;;;;;;;;;;5133026;27;20146;-67
2022/01/31 12:55:32;;;;;;;37.70;6.57;;;;;;;;;;5133974;27;20052;-67
2022/01/31 12:57:58;;;;;;;57.20;6.47;;;;;;;;;;5132699;27;20055;-68
2022/01/31 13:00:32;;;;;;;41.20;5.38;;;;;;;;;;5136688;27;20039;-68
2022/01/31 13:03:30;;;;;;;45.58;6.05;;;;;;;;;;5132565;27;20062;-67
2022/01/31 13:05:57;;;;;;;50.42;6.50;;;;;;;;;;5141512;27;20051;-66
2022/01/31 13:08:24;;;;;;;34.42;5.53;;;;;;;;;;5142134;27;20058;-66
2022/01/31 13:10:55;;;;;;;45.50;5.72;;;;;;;;;;5146080;27;20047;-67
2022/01/31 13:13:31;;;;;;;39.67;5.28;;;;;;;;;;5136447;27;20133;-68
2022/01/31 13:16:04;;;;;;;39.72;6.45;;;;;;;;;;5144442;27;20059;-67
2022/01/31 13:18:32;;;;;;;43.60;5.78;;;;;;;;;;5137121;27;20101;-66
2022/01/31 13:20:58;;;;;;;53.90;6.32;;;;;;;;;;5135228;27;20509;-67
2022/01/31 13:23:26;;;;;;;51.33;7.78;;;;;;;;;;5135712;27;20051;-64
2022/01/31 13:26:06;;;;;;;46.75;6.45;;;;;;;;;;5137474;27;20055;-67
2022/01/31 13:28:33;;;;;;;40.20;7.22;;;;;;;;;;5129926;27;20548;-66
2022/01/31 13:31:10;;;;;;;36.33;5.97;;;;;;;;;;5133828;27;20536;-67
2022/01/31 13:33:46;;;;;;;48.78;5.70;;;;;;;;;;5135492;27;20644;-65
2022/01/31 13:36:13;;;;;;;33.28;5.15;;;;;;;;;;5140274;27;20202;-65
2022/01/31 13:38:40;;;;;;;52.83;7.05;;;;;;;;;;5130371;27;20539;-65
2022/01/31 13:41:06;;;;;;;46.58;5.78;;;;;;;;;;5130490;27;20071;-68
2022/01/31 13:43:36;;;;;;;35.17;6.97;;;;;;;;;;5142974;27;20147;-67
2022/01/31 13:48:44;;;;;;;31.48;5.60;;;;;;;;;;5138373;27;20066;-67
2022/01/31 13:51:14;;;;;;;41.30;6.05;;;;;;;;;;5152182;27;20444;-67
2022/01/31 13:53:41;;;;;;;39.08;5.15;;;;;;;;;;5135825;27;20064;-66
2022/01/31 13:56:10;;;;;;;47.85;6.28;;;;;;;;;;5136892;27;20060;-67
2022/01/31 13:58:38;;;;;;;53.80;6.07;;;;;;;;;;5155015;27;20047;-67
2022/01/31 14:01:05;;;;;;;32.85;6.10;;;;;;;;;;5155159;27;20046;-67
2022/01/31 14:03:42;;;;;;;30.63;4.43;;;;;;;;;;5135806;27;20079;-66
2022/01/31 14:06:11;;;;;;;34.78;5.75;;;;;;;;;;5153491;27;20575;-66
2022/01/31 14:08:41;;;;;;;29.40;5.03;;;;;;;;;;5143227;27;20058;-66
2022/01/31 14:11:07;;;;;;;23.05;4.30;;;;;;;;;;5135534;27;20143;-66
2022/01/31 14:13:35;;;;;;;39.95;4.78;;;;;;;;;;5136206;27;20146;-67
2022/01/31 14:16:02;;;;;;;36.58;5.55;;;;;;;;;;5136832;27;20142;-67
2022/01/31 14:18:29;;;;;;;39.10;4.85;;;;;;;;;;5135075;27;20058;-67
2022/01/31 14:20:56;;;;;;;23.77;5.00;;;;;;;;;;5135477;27;20523;-67
2022/01/31 14:23:23;;;;;;;30.88;4.63;;;;;;;;;;5139235;27;20050;-66
2022/01/31 14:25:50;;;;;;;37.13;5.18;;;;;;;;;;5136046;27;20055;-66
2022/01/31 14:28:17;;;;;;;39.08;5.57;;;;;;;;;;5135320;27;20146;-67
2022/01/31 14:30:47;;;;;;;42.90;5.43;;;;;;;;;;5135878;27;20048;-66
2022/01/31 14:33:14;;;;;;;39.58;5.85;;;;;;;;;;5135436;27;20051;-67
2022/01/31 14:35:46;;;;;;;45.53;6.03;;;;;;;;;;5135059;27;20055;-67
2022/01/31 14:38:19;;;;;;;33.67;5.03;;;;;;;;;;5135033;27;20070;-67
2022/01/31 14:49:21;;;;;;;29.73;4.65;;;;;;;;;;5134835;27;20066;-68
2022/01/31 14:51:49;;;;;;;27.63;4.88;;;;;;;;;;5135968;27;20067;-67
2022/01/31 14:54:16;;;;;;;28.95;3.88;;;;;;;;;;5135031;27;20057;-67
2022/01/31 14:56:43;;;;;;;32.50;4.32;;;;;;;;;;5142383;27;20127;-68
2022/01/31 14:59:22;;;;;;;36.63;4.35;;;;;;;;;;5134768;27;20133;-67
2022/01/31 15:01:48;;;;;;;30.13;4.35;;;;;;;;;;5132737;27;20048;-68
2022/01/31 15:04:34;;;;;;;26.83;3.97;;;;;;;;;;5140013;27;20059;-67
2022/01/31 15:07:01;;;;;;;28.38;4.50;;;;;;;;;;5148118;27;20568;-68
2022/01/31 15:09:32;;;;;;;30.45;4.00;;;;;;;;;;5149332;27;20060;-67
2022/01/31 15:11:58;;;;;;;28.20;4.03;;;;;;;;;;5140283;27;20053;-67
2022/01/31 15:14:26;;;;;;;46.40;5.18;;;;;;;;;;5152211;27;20047;-67